createdAt,value
2018-08-12T00:00:23.976Z,0.40
2018-08-12T00:02:53.770Z,0.50
2018-08-12T00:05:22.911Z,0.30
2018-08-12T00:07:52.068Z,0.50
2018-08-12T00:10:21.288Z,0.50
2018-08-12T00:12:50.335Z,0.50
2018-08-12T00:15:21.056Z,0.50
2018-08-12T00:17:50.204Z,0.50
2018-08-12T00:20:21.069Z,0.50
2018-08-12T00:22:50.246Z,0.40
2018-08-12T00:25:20.848Z,0.40
2018-08-12T00:27:49.977Z,0.60
2018-08-12T00:30:19.811Z,0.50
2018-08-12T00:32:48.896Z,0.60
2018-08-12T00:35:19.069Z,0.50
2018-08-12T00:37:48.250Z,0.70
2018-08-12T00:40:17.970Z,0.60
2018-08-12T00:42:47.384Z,0.80
2018-08-12T00:45:17.935Z,0.93
2018-08-12T00:47:47.326Z,0.60
2018-08-12T00:50:17.230Z,1.00
2018-08-12T00:52:46.344Z,0.60
2018-08-12T00:55:17.772Z,0.70
2018-08-12T00:57:47.759Z,0.60
2018-08-12T01:00:18.871Z,0.73
2018-08-12T01:02:48.021Z,0.67
2018-08-12T01:05:18.013Z,0.60
2018-08-12T01:07:48.106Z,0.57
2018-08-12T01:10:17.907Z,0.67
2018-08-12T01:12:47.038Z,0.90
2018-08-12T01:15:18.502Z,0.50
2018-08-12T01:17:47.562Z,0.70
2018-08-12T01:20:18.510Z,0.50
2018-08-12T01:22:47.876Z,0.73
2018-08-12T01:25:18.047Z,0.60
2018-08-12T01:27:47.248Z,0.60
2018-08-12T01:30:19.290Z,0.60
2018-08-12T01:32:49.178Z,0.60
2018-08-12T01:35:18.627Z,0.80
2018-08-12T01:37:48.566Z,0.80
2018-08-12T01:40:18.673Z,0.83
2018-08-12T01:42:48.015Z,1.23
2018-08-12T01:45:18.918Z,1.10
2018-08-12T01:47:48.027Z,1.97
2018-08-12T01:50:18.563Z,2.20
2018-08-12T01:52:47.735Z,2.10
2018-08-12T01:55:17.138Z,2.27
2018-08-12T01:57:46.206Z,2.03
2018-08-12T02:00:19.529Z,2.70
2018-08-12T02:02:49.007Z,1.83
2018-08-12T02:05:18.741Z,2.40
2018-08-12T02:07:48.250Z,1.47
2018-08-12T02:10:17.973Z,1.30
2018-08-12T02:12:47.241Z,1.00
2018-08-12T02:15:16.649Z,1.60
2018-08-12T02:17:46.056Z,1.50
2018-08-12T02:20:15.373Z,1.50
2018-08-12T02:22:48.862Z,1.10
2018-08-12T02:25:18.353Z,1.53
2018-08-12T02:27:47.658Z,1.47
2018-08-12T02:30:18.309Z,1.20
2018-08-12T02:32:47.950Z,1.40
2018-08-12T02:35:20.282Z,1.40
2018-08-12T02:37:53.309Z,1.20
2018-08-12T02:40:25.389Z,0.97
2018-08-12T02:42:59.394Z,1.10
2018-08-12T02:45:29.476Z,1.37
2018-08-12T02:47:58.962Z,0.97
2018-08-12T02:50:28.011Z,0.70
2018-08-12T02:53:06.749Z,0.90
2018-08-12T03:10:38.788Z,1.10
2018-08-12T03:13:27.478Z,0.70
2018-08-12T03:16:24.780Z,0.67
2018-08-12T03:26:43.902Z,0.70
2018-08-12T03:34:54.059Z,0.80
2018-08-12T03:37:48.810Z,0.70
2018-08-12T03:40:20.959Z,0.70
2018-08-12T03:42:51.070Z,0.90
2018-08-12T03:45:20.506Z,0.80
2018-08-12T03:47:49.681Z,0.83
2018-08-12T03:50:20.961Z,0.97
2018-08-12T03:52:50.060Z,0.60
2018-08-12T03:55:19.215Z,0.90
2018-08-12T03:57:48.396Z,0.60
2018-08-12T04:00:18.691Z,0.70
2018-08-12T04:02:48.799Z,0.60
2018-08-12T04:05:18.860Z,0.97
2018-08-12T04:07:48.074Z,0.70
2018-08-12T04:10:17.598Z,0.70
2018-08-12T04:12:46.839Z,0.50
2018-08-12T04:15:16.460Z,0.67
2018-08-12T04:17:54.764Z,0.90
2018-08-12T04:20:24.712Z,0.87
2018-08-12T04:22:54.024Z,1.00
2018-08-12T04:25:24.440Z,0.73
2018-08-12T04:27:56.118Z,0.50
2018-08-12T04:30:25.593Z,0.80
2018-08-12T04:32:56.006Z,0.50
2018-08-12T04:35:36.759Z,0.83
2018-08-12T04:38:11.043Z,0.80
2018-08-12T04:40:40.382Z,0.73
2018-08-12T04:43:26.173Z,0.57
2018-08-12T04:49:04.667Z,0.73
2018-08-12T04:51:49.368Z,0.57
2018-08-12T04:54:25.741Z,0.53
2018-08-12T04:57:02.440Z,0.53
2018-08-12T04:59:44.793Z,0.60
2018-08-12T05:02:31.521Z,0.40
2018-08-12T05:05:05.637Z,0.40
2018-08-12T05:07:34.613Z,0.60
2018-08-12T05:13:01.175Z,0.60
2018-08-12T05:15:30.677Z,0.50
2018-08-12T05:18:12.682Z,0.57
2018-08-12T05:37:59.521Z,0.73
2018-08-12T05:40:28.961Z,0.53
2018-08-12T05:45:47.359Z,0.60
2018-08-12T05:48:22.399Z,0.50
2018-08-12T05:50:52.743Z,0.40
2018-08-12T05:53:22.328Z,0.40
2018-08-12T06:03:30.143Z,0.40
2018-08-12T06:06:07.775Z,0.60
2018-08-12T06:09:00.024Z,0.40
2018-08-12T06:11:29.393Z,0.50
2018-08-12T06:14:10.590Z,0.50
2018-08-12T06:16:43.882Z,0.60
2018-08-12T06:19:16.845Z,0.50
2018-08-12T06:21:48.573Z,0.57
2018-08-12T06:24:18.964Z,0.50
2018-08-12T06:26:54.875Z,0.40
2018-08-12T06:29:24.415Z,0.40
2018-08-12T06:31:57.059Z,0.60
2018-08-12T06:34:26.106Z,0.40
2018-08-12T06:36:59.076Z,0.60
2018-08-12T06:39:28.419Z,0.70
2018-08-12T06:41:58.203Z,0.40
2018-08-12T06:44:38.287Z,0.40
2018-08-12T06:47:07.500Z,0.37
2018-08-12T06:49:36.607Z,0.57
2018-08-12T06:52:05.793Z,0.30
2018-08-12T06:54:34.964Z,0.60
2018-08-12T06:57:04.133Z,0.40
2018-08-12T06:59:33.358Z,0.50
2018-08-12T07:02:02.374Z,0.40
2018-08-12T07:04:31.552Z,0.33
2018-08-12T07:07:00.575Z,0.30
2018-08-12T07:09:30.643Z,0.30
2018-08-12T07:11:59.769Z,0.40
2018-08-12T07:14:28.997Z,0.40
2018-08-12T07:16:58.414Z,0.30
2018-08-12T07:19:27.644Z,0.30
2018-08-12T07:21:56.689Z,0.30
2018-08-12T07:24:25.719Z,0.30
2018-08-12T07:26:54.767Z,0.50
2018-08-12T07:29:23.892Z,0.30
2018-08-12T07:31:52.935Z,0.30
2018-08-12T07:34:21.961Z,0.40
2018-08-12T07:36:51.072Z,0.50
2018-08-12T07:39:20.047Z,0.90
2018-08-12T07:41:49.076Z,0.40
2018-08-12T07:44:18.159Z,0.30
2018-08-12T07:46:47.409Z,0.67
2018-08-12T07:49:16.398Z,0.40
2018-08-12T07:51:45.436Z,0.67
2018-08-12T07:54:14.422Z,0.43
2018-08-12T07:56:43.589Z,0.50
2018-08-12T07:59:12.560Z,0.40
2018-08-12T08:01:41.538Z,0.40
2018-08-12T08:04:10.661Z,0.47
2018-08-12T08:06:39.614Z,0.40
2018-08-12T08:09:10.566Z,0.43
2018-08-12T08:11:39.774Z,0.53
2018-08-12T08:14:08.871Z,0.40
2018-08-12T08:16:38.135Z,0.30
2018-08-12T08:19:07.216Z,0.40
2018-08-12T08:21:36.336Z,0.30
2018-08-12T08:24:07.071Z,0.40
2018-08-12T08:26:36.334Z,0.37
2018-08-12T08:29:05.954Z,0.30
2018-08-12T08:31:35.174Z,0.20
2018-08-12T08:34:04.361Z,0.40
2018-08-12T08:36:33.452Z,0.30
2018-08-12T08:39:02.428Z,0.40
2018-08-12T08:41:31.458Z,0.40
2018-08-12T08:44:01.244Z,0.40
2018-08-12T08:46:30.323Z,0.40
2018-08-12T08:48:59.328Z,0.30
2018-08-12T08:51:28.279Z,0.77
2018-08-12T08:53:57.469Z,0.43
2018-08-12T08:56:26.529Z,0.30
2018-08-12T08:58:55.676Z,0.40
2018-08-12T09:01:24.804Z,0.30
2018-08-12T09:03:53.703Z,0.20
2018-08-12T09:06:23.203Z,0.40
2018-08-12T09:08:52.391Z,0.40
2018-08-12T09:11:21.450Z,0.20
2018-08-12T09:13:50.356Z,0.20
2018-08-12T09:16:19.387Z,0.20
2018-08-12T09:18:48.346Z,0.20
2018-08-12T09:21:17.438Z,0.20
2018-08-12T09:23:46.442Z,0.40
2018-08-12T09:26:15.444Z,0.40
2018-08-12T09:28:44.450Z,0.30
2018-08-12T09:31:13.610Z,0.20
2018-08-12T09:33:42.694Z,0.30
2018-08-12T09:36:11.687Z,0.57
2018-08-12T09:38:40.635Z,0.30
2018-08-12T09:41:09.612Z,0.27
2018-08-12T09:43:38.582Z,0.30
2018-08-12T09:46:07.746Z,0.47
2018-08-12T09:48:36.890Z,0.30
2018-08-12T09:51:05.902Z,0.40
2018-08-12T09:53:34.830Z,1.07
2018-08-12T09:56:03.731Z,0.97
2018-08-12T09:58:32.727Z,0.40
2018-08-12T10:01:01.715Z,0.30
2018-08-12T10:03:30.887Z,0.20
2018-08-12T10:05:59.791Z,0.20
2018-08-12T10:08:28.887Z,0.30
2018-08-12T10:10:57.835Z,0.40
2018-08-12T10:13:26.714Z,0.20
2018-08-12T10:15:56.193Z,0.20
2018-08-12T10:18:25.683Z,0.50
2018-08-12T10:20:55.202Z,0.20
2018-08-12T10:23:24.043Z,0.20
2018-08-12T10:25:53.071Z,0.30
2018-08-12T10:28:21.982Z,0.30
2018-08-12T10:30:50.961Z,0.20
2018-08-12T10:33:19.875Z,0.40
2018-08-12T10:35:48.745Z,0.30
2018-08-12T10:38:17.666Z,0.50
2018-08-12T10:40:46.568Z,0.33
2018-08-12T10:43:15.471Z,0.20
2018-08-12T10:45:44.377Z,0.40
2018-08-12T10:48:13.538Z,0.20
2018-08-12T10:50:42.426Z,0.40
2018-08-12T10:53:11.390Z,0.27
2018-08-12T10:55:40.294Z,0.20
2018-08-12T10:58:09.223Z,0.20
2018-08-12T11:00:38.534Z,0.30
2018-08-12T11:03:07.520Z,0.30
2018-08-12T11:05:36.926Z,0.20
2018-08-12T11:08:05.955Z,0.20
2018-08-12T11:10:34.871Z,0.30
2018-08-12T11:13:11.489Z,0.30
2018-08-12T11:15:40.761Z,0.10
2018-08-12T11:18:10.516Z,0.20
2018-08-12T11:20:39.400Z,0.40
2018-08-12T11:23:11.646Z,0.30
2018-08-12T11:25:41.594Z,0.20
2018-08-12T11:28:10.955Z,0.20
2018-08-12T11:30:39.794Z,0.30
2018-08-12T11:33:08.607Z,0.20
2018-08-12T11:35:37.502Z,0.50
2018-08-12T11:38:06.678Z,0.10
2018-08-12T11:40:36.202Z,0.30
2018-08-12T11:43:05.370Z,0.20
2018-08-12T11:45:34.207Z,0.20
2018-08-12T11:48:03.048Z,0.27
2018-08-12T11:50:31.959Z,0.30
2018-08-12T11:53:00.818Z,0.20
2018-08-12T11:55:29.718Z,0.20
2018-08-12T11:57:58.597Z,0.40
2018-08-12T12:00:27.438Z,0.20
2018-08-12T12:02:56.288Z,0.30
2018-08-12T12:05:25.153Z,0.20
2018-08-12T12:07:54.011Z,0.30
2018-08-12T12:10:23.603Z,0.47
2018-08-12T12:12:53.196Z,0.10
2018-08-12T12:15:22.120Z,0.30
2018-08-12T12:17:51.268Z,0.20
2018-08-12T12:20:20.589Z,0.10
2018-08-12T12:22:49.693Z,0.23
2018-08-12T12:25:19.912Z,0.20
2018-08-12T12:27:48.986Z,0.20
2018-08-12T12:30:19.223Z,0.23
2018-08-12T12:32:49.217Z,0.20
2018-08-12T12:35:18.142Z,0.20
2018-08-12T12:37:47.167Z,0.30
2018-08-12T12:40:17.151Z,0.20
2018-08-12T12:42:46.371Z,0.10
2018-08-12T12:45:15.735Z,0.30
2018-08-12T12:47:45.071Z,0.20
2018-08-12T12:50:16.801Z,0.30
2018-08-12T12:52:46.409Z,0.10
2018-08-12T12:55:15.291Z,0.20
2018-08-12T12:57:44.233Z,0.20
2018-08-12T13:00:14.748Z,0.20
2018-08-12T13:02:43.510Z,0.27
2018-08-12T13:05:14.239Z,0.20
2018-08-12T13:07:44.247Z,0.20
2018-08-12T13:10:13.999Z,0.30
2018-08-12T13:12:43.316Z,0.23
2018-08-12T13:15:13.054Z,0.10
2018-08-12T13:17:41.974Z,0.20
2018-08-12T13:20:13.154Z,0.20
2018-08-12T13:22:42.801Z,0.20
2018-08-12T13:25:13.819Z,0.20
2018-08-12T13:27:43.483Z,0.30
2018-08-12T13:30:13.344Z,0.10
2018-08-12T13:32:43.252Z,0.20
2018-08-12T13:35:12.158Z,0.20
2018-08-12T13:37:41.182Z,0.20
2018-08-12T13:40:12.640Z,0.20
2018-08-12T13:42:42.038Z,0.20
2018-08-12T13:45:11.850Z,0.20
2018-08-12T13:47:42.121Z,0.20
2018-08-12T13:50:22.773Z,0.20
2018-08-12T13:52:52.153Z,0.20
2018-08-12T13:55:21.794Z,0.30
2018-08-12T13:57:51.262Z,0.30
2018-08-12T14:00:23.528Z,0.20
2018-08-12T14:02:52.419Z,0.17
2018-08-12T14:05:21.426Z,0.20
2018-08-12T14:07:50.922Z,0.20
2018-08-12T14:10:19.827Z,0.20
2018-08-12T14:12:48.739Z,0.17
2018-08-12T14:15:18.883Z,0.20
2018-08-12T14:17:49.037Z,0.20
2018-08-12T14:20:19.556Z,0.20
2018-08-12T14:22:48.498Z,0.20
2018-08-12T14:25:17.410Z,0.20
2018-08-12T14:27:46.338Z,0.20
2018-08-12T14:30:20.282Z,0.20
2018-08-12T14:32:49.928Z,0.20
2018-08-12T14:35:19.123Z,0.10
2018-08-12T14:37:47.991Z,0.20
2018-08-12T14:40:16.944Z,0.23
2018-08-12T14:42:45.929Z,0.10
2018-08-12T14:45:15.653Z,0.20
2018-08-12T14:47:44.848Z,0.33
2018-08-12T14:50:15.580Z,0.20
2018-08-12T14:52:44.290Z,0.20
2018-08-12T14:55:13.638Z,0.27
2018-08-12T14:57:43.046Z,0.20
2018-08-12T15:00:14.220Z,0.40
2018-08-12T15:02:43.138Z,0.10
2018-08-12T15:05:11.999Z,0.20
2018-08-12T15:07:40.957Z,0.10
2018-08-12T15:10:11.106Z,0.10
2018-08-12T15:12:40.423Z,0.20
2018-08-12T15:15:10.876Z,0.20
2018-08-12T15:17:40.517Z,0.10
2018-08-12T15:20:09.590Z,0.10
2018-08-12T15:22:40.404Z,0.20
2018-08-12T15:25:11.027Z,0.10
2018-08-12T15:27:39.959Z,0.20
2018-08-12T15:30:10.654Z,0.10
2018-08-12T15:32:39.738Z,0.10
2018-08-12T15:35:09.075Z,0.20
2018-08-12T15:37:38.079Z,0.20
2018-08-12T15:40:09.173Z,0.20
2018-08-12T15:42:38.000Z,0.10
2018-08-12T15:45:09.552Z,0.20
2018-08-12T15:47:38.545Z,0.20
2018-08-12T15:50:08.363Z,0.10
2018-08-12T15:52:37.242Z,0.33
2018-08-12T15:55:06.566Z,0.20
2018-08-12T15:57:35.618Z,0.20
2018-08-12T16:00:06.043Z,0.30
2018-08-12T16:02:34.858Z,0.20
2018-08-12T16:05:03.816Z,0.10
2018-08-12T16:07:32.726Z,0.20
2018-08-12T16:10:01.717Z,0.20
2018-08-12T16:12:30.550Z,0.10
2018-08-12T16:14:59.446Z,0.10
2018-08-12T16:17:28.267Z,0.27
2018-08-12T16:19:57.078Z,0.10
2018-08-12T16:22:26.011Z,0.20
2018-08-12T16:24:54.818Z,0.13
2018-08-12T16:27:23.809Z,0.10
2018-08-12T16:29:52.768Z,0.20
2018-08-12T16:32:21.706Z,0.10
2018-08-12T16:34:50.519Z,0.10
2018-08-12T16:37:19.387Z,0.10
2018-08-12T16:39:48.206Z,0.40
2018-08-12T16:42:17.034Z,0.10
2018-08-12T16:44:45.865Z,0.10
2018-08-12T16:47:14.695Z,0.10
2018-08-12T16:49:43.619Z,0.23
2018-08-12T16:52:12.444Z,0.10
2018-08-12T16:54:41.330Z,0.10
2018-08-12T16:57:10.157Z,0.10
2018-08-12T16:59:39.282Z,0.10
2018-08-12T17:02:08.158Z,0.10
2018-08-12T17:04:36.974Z,0.10
2018-08-12T17:07:06.214Z,0.10
2018-08-12T17:09:35.055Z,0.00
2018-08-12T17:12:03.931Z,0.07
2018-08-12T17:14:32.782Z,0.10
2018-08-12T17:17:01.652Z,0.17
2018-08-12T17:19:30.462Z,0.17
2018-08-12T17:21:59.322Z,0.10
2018-08-12T17:24:28.222Z,0.10
2018-08-12T17:29:56.381Z,0.20
2018-08-12T17:32:25.311Z,0.10
2018-08-12T17:34:54.179Z,0.10
2018-08-12T17:37:23.070Z,0.10
2018-08-12T17:39:51.955Z,0.07
2018-08-12T17:42:20.811Z,0.07
2018-08-12T17:44:49.725Z,0.00
2018-08-12T17:47:18.566Z,0.10
2018-08-12T17:49:47.398Z,0.10
2018-08-12T17:52:16.350Z,0.20
2018-08-12T17:54:45.289Z,0.10
2018-08-12T17:57:44.466Z,0.10
2018-08-12T18:00:14.882Z,0.10
2018-08-12T18:02:43.874Z,0.10
2018-08-12T18:05:12.728Z,0.10
2018-08-12T18:07:42.226Z,0.10
2018-08-12T18:10:11.130Z,0.20
2018-08-12T18:12:40.026Z,0.10
2018-08-12T18:15:10.468Z,0.20
2018-08-12T18:17:40.066Z,0.10
2018-08-12T18:20:09.298Z,0.20
2018-08-12T18:22:38.337Z,0.10
2018-08-12T18:25:09.426Z,0.20
2018-08-12T18:27:38.286Z,0.10
2018-08-12T18:30:09.614Z,0.10
2018-08-12T18:32:38.561Z,0.10
2018-08-12T18:35:08.228Z,0.10
2018-08-12T18:37:37.242Z,0.10
2018-08-12T18:40:07.462Z,0.10
2018-08-12T18:42:36.424Z,0.20
2018-08-12T18:45:05.742Z,0.10
2018-08-12T18:47:34.632Z,0.20
2018-08-12T18:50:03.786Z,0.10
2018-08-12T18:52:32.712Z,0.20
2018-08-12T18:55:01.571Z,0.10
2018-08-12T18:57:30.426Z,0.17
2018-08-12T18:59:59.267Z,0.10
2018-08-12T19:02:28.102Z,0.10
2018-08-12T19:04:57.051Z,0.20
2018-08-12T19:07:25.934Z,0.30
2018-08-12T19:09:54.825Z,0.20
2018-08-12T19:12:23.709Z,0.17
2018-08-12T19:14:52.656Z,0.20
2018-08-12T19:17:21.502Z,0.10
2018-08-12T19:19:50.373Z,0.20
2018-08-12T19:22:19.300Z,0.20
2018-08-12T19:24:48.277Z,0.17
2018-08-12T19:27:17.110Z,0.20
2018-08-12T19:29:46.049Z,0.20
2018-08-12T19:32:14.871Z,0.20
2018-08-12T19:34:43.950Z,0.30
2018-08-12T19:37:12.738Z,0.20
2018-08-12T19:39:41.679Z,0.28
2018-08-12T19:42:10.504Z,0.30
2018-08-12T19:44:39.455Z,0.30
2018-08-12T19:47:08.310Z,0.20
2018-08-12T19:49:37.153Z,0.40
2018-08-12T19:52:06.098Z,0.40
2018-08-12T19:54:34.975Z,0.30
2018-08-12T19:57:03.926Z,0.30
2018-08-12T19:59:32.790Z,0.27
2018-08-12T20:02:01.718Z,0.20
2018-08-12T20:04:30.553Z,0.20
2018-08-12T20:06:59.385Z,0.30
2018-08-12T20:09:28.214Z,0.27
2018-08-12T20:11:57.114Z,0.20
2018-08-12T20:14:25.899Z,0.20
2018-08-12T20:16:54.773Z,0.30
2018-08-12T20:19:23.690Z,0.30
2018-08-12T20:21:52.522Z,0.37
2018-08-12T20:24:21.381Z,0.30
2018-08-12T20:26:50.274Z,0.33
2018-08-12T20:29:19.111Z,0.20
2018-08-12T20:31:48.001Z,0.40
2018-08-12T20:34:16.830Z,0.40
2018-08-12T20:36:45.659Z,0.30
2018-08-12T20:39:14.688Z,0.40
2018-08-12T20:41:44.210Z,0.30
2018-08-12T20:44:13.146Z,0.30
2018-08-12T20:46:42.063Z,0.30
2018-08-12T20:49:10.869Z,0.30
2018-08-12T20:51:39.738Z,0.30
2018-08-12T20:54:08.638Z,0.30
2018-08-12T20:56:37.459Z,0.30
2018-08-12T20:59:06.378Z,0.33
2018-08-12T21:01:35.315Z,0.30
2018-08-12T21:04:34.678Z,0.30
2018-08-12T21:07:03.642Z,0.20
2018-08-12T21:09:32.438Z,0.40
2018-08-12T21:12:01.292Z,0.30
2018-08-12T21:14:30.075Z,0.30
2018-08-12T21:16:59.003Z,0.30
2018-08-12T21:19:28.287Z,0.30
2018-08-12T21:21:57.199Z,0.40
2018-08-12T21:24:26.270Z,0.30
2018-08-12T21:26:55.109Z,0.40
2018-08-12T21:29:23.945Z,0.40
2018-08-12T21:31:52.921Z,0.40
2018-08-12T21:34:21.743Z,0.40
2018-08-12T21:36:50.570Z,0.30
2018-08-12T21:39:19.429Z,0.50
2018-08-12T21:41:48.278Z,0.43
2018-08-12T21:44:17.839Z,0.40
2018-08-12T21:46:46.690Z,0.50
2018-08-12T21:49:15.497Z,0.30
2018-08-12T21:51:44.312Z,0.33
2018-08-12T21:54:13.129Z,0.40
2018-08-12T21:56:41.931Z,0.40
2018-08-12T21:59:10.763Z,0.40
2018-08-12T22:01:39.555Z,0.50
2018-08-12T22:04:08.425Z,0.40
2018-08-12T22:06:37.195Z,0.40
2018-08-12T22:09:08.491Z,0.40
2018-08-12T22:11:37.299Z,0.50
2018-08-12T22:14:06.340Z,0.30
2018-08-12T22:16:35.261Z,0.37
2018-08-12T22:19:04.079Z,0.40
2018-08-12T22:21:32.941Z,0.67
2018-08-12T22:24:01.815Z,0.43
2018-08-12T22:26:30.653Z,0.50
2018-08-12T22:28:59.556Z,0.47
2018-08-12T22:31:28.366Z,0.43
2018-08-12T22:33:57.193Z,0.50
2018-08-12T22:36:26.010Z,0.60
2018-08-12T22:38:54.866Z,0.30
2018-08-12T22:41:23.675Z,0.60
2018-08-12T22:43:52.534Z,0.60
2018-08-12T22:46:21.473Z,0.50
2018-08-12T22:48:50.275Z,0.60
2018-08-12T22:51:19.147Z,1.00
2018-08-12T22:53:47.994Z,1.93
2018-08-12T22:56:16.790Z,1.60
2018-08-12T22:58:45.590Z,1.40
2018-08-12T23:01:14.529Z,1.40
2018-08-12T23:03:43.407Z,1.10
2018-08-12T23:06:12.264Z,0.77
2018-08-12T23:08:41.097Z,0.70
2018-08-12T23:11:09.935Z,0.70
2018-08-12T23:13:38.761Z,0.83
2018-08-12T23:16:22.188Z,0.60
2018-08-12T23:18:51.069Z,0.70
2018-08-12T23:21:20.481Z,0.60
2018-08-12T23:23:50.623Z,0.53
2018-08-12T23:26:20.761Z,0.60
2018-08-12T23:28:49.602Z,0.60
2018-08-12T23:31:18.450Z,0.60
2018-08-12T23:33:47.265Z,0.50
2018-08-12T23:36:16.098Z,0.60
2018-08-12T23:38:44.919Z,0.50
2018-08-12T23:41:13.965Z,0.60
2018-08-12T23:43:42.806Z,0.60
2018-08-12T23:46:12.255Z,0.90
2018-08-12T23:48:41.163Z,0.63
2018-08-12T23:51:10.078Z,0.60
2018-08-12T23:53:39.074Z,1.13
2018-08-12T23:56:07.946Z,0.90
2018-08-12T23:58:36.822Z,0.80
